createdAt,value
2023-01-12T00:00:37.773Z,22.63
2023-01-12T00:03:06.815Z,27.45
2023-01-12T00:05:36.095Z,31.75
2023-01-12T00:08:05.403Z,34.90
2023-01-12T00:10:34.451Z,47.67
2023-01-12T00:13:04.871Z,42.58
2023-01-12T00:15:59.435Z,43.23
2023-01-12T00:18:28.454Z,53.85
2023-01-12T00:20:57.459Z,68.50
2023-01-12T00:23:30.562Z,62.03
2023-01-12T00:25:59.566Z,57.85
2023-01-12T00:28:30.052Z,49.20
2023-01-12T00:31:02.060Z,51.73
2023-01-12T00:33:31.059Z,28.35
2023-01-12T00:36:04.356Z,30.50
2023-01-12T00:38:36.593Z,28.60
2023-01-12T00:41:11.258Z,28.90
2023-01-12T00:43:58.935Z,30.95
2023-01-12T00:46:31.616Z,24.70
2023-01-12T00:49:00.619Z,31.50
2023-01-12T00:51:29.611Z,26.90
2023-01-12T00:53:58.560Z,28.50
2023-01-12T00:56:27.532Z,26.27
2023-01-12T00:58:57.925Z,23.90
2023-01-12T01:01:27.160Z,19.43
2023-01-12T01:03:56.324Z,16.50
2023-01-12T01:06:25.504Z,25.42
2023-01-12T01:08:54.572Z,24.30
2023-01-12T01:11:23.940Z,32.03
2023-01-12T01:13:52.985Z,33.75
2023-01-12T01:16:23.392Z,29.42
2023-01-12T01:18:52.723Z,29.73
2023-01-12T01:21:21.809Z,38.60
2023-01-12T01:23:50.925Z,30.00
2023-01-12T01:26:22.988Z,31.35
2023-01-12T01:28:52.614Z,25.65
2023-01-12T01:31:24.856Z,31.48
2023-01-12T01:33:54.212Z,28.70
2023-01-12T01:36:23.345Z,26.25
2023-01-12T01:38:52.555Z,20.45
2023-01-12T01:41:24.454Z,15.02
2023-01-12T01:43:57.141Z,25.27
2023-01-12T01:46:39.417Z,25.65
2023-01-12T01:49:16.370Z,26.42
2023-01-12T01:51:46.573Z,28.98
2023-01-12T01:54:16.473Z,26.15
2023-01-12T01:56:46.603Z,25.95
2023-01-12T01:59:20.693Z,28.55
2023-01-12T02:01:51.874Z,31.55
2023-01-12T02:04:21.040Z,27.23
2023-01-12T02:06:50.598Z,25.33
2023-01-12T02:09:23.453Z,27.88
2023-01-12T02:12:10.549Z,29.10
2023-01-12T02:14:56.983Z,31.23
2023-01-12T02:17:44.651Z,25.75
2023-01-12T02:20:56.369Z,24.70
2023-01-12T02:24:12.006Z,26.10
2023-01-12T02:27:17.923Z,26.55
2023-01-12T02:30:34.935Z,23.20
2023-01-12T02:33:30.463Z,24.45
2023-01-12T02:36:06.914Z,18.77
2023-01-12T02:38:39.267Z,19.40
2023-01-12T02:41:16.465Z,26.92
2023-01-12T02:43:44.979Z,21.35
2023-01-12T02:46:20.345Z,22.90
2023-01-12T02:48:57.136Z,23.05
2023-01-12T02:51:33.442Z,26.17
2023-01-12T02:54:06.599Z,27.27
2023-01-12T02:56:38.324Z,21.65
2023-01-12T02:59:10.566Z,20.20
2023-01-12T03:01:40.900Z,22.48
2023-01-12T03:04:14.101Z,20.92
2023-01-12T03:06:46.692Z,21.85
2023-01-12T03:09:19.302Z,26.15
2023-01-12T03:11:52.411Z,24.98
2023-01-12T03:14:23.577Z,20.10
2023-01-12T03:16:55.666Z,22.88
2023-01-12T03:19:30.678Z,29.38
2023-01-12T03:22:02.736Z,25.42
2023-01-12T03:24:36.621Z,19.52
2023-01-12T03:27:11.551Z,21.85
2023-01-12T03:29:45.702Z,27.75
2023-01-12T03:32:14.755Z,19.38
2023-01-12T03:34:46.462Z,27.90
2023-01-12T03:37:25.915Z,22.30
2023-01-12T03:40:02.271Z,22.27
2023-01-12T03:42:38.768Z,19.75
2023-01-12T03:45:18.214Z,21.63
2023-01-12T03:47:53.739Z,25.80
2023-01-12T03:50:28.381Z,14.73
2023-01-12T03:52:59.811Z,25.15
2023-01-12T03:55:30.767Z,23.25
2023-01-12T03:58:00.621Z,24.58
2023-01-12T04:00:31.475Z,22.10
2023-01-12T04:03:05.300Z,21.60
2023-01-12T04:05:35.963Z,26.20
2023-01-12T04:08:05.058Z,27.55
2023-01-12T04:10:34.071Z,26.67
2023-01-12T04:13:03.154Z,25.70
2023-01-12T04:15:32.324Z,25.40
2023-01-12T04:18:01.322Z,25.13
2023-01-12T04:20:30.335Z,22.58
2023-01-12T04:22:59.783Z,25.52
2023-01-12T04:25:29.297Z,23.55
2023-01-12T04:28:00.903Z,29.00
2023-01-12T04:30:30.861Z,29.13
2023-01-12T04:33:00.731Z,26.20
2023-01-12T04:35:29.749Z,23.90
2023-01-12T04:38:00.127Z,21.33
2023-01-12T04:40:29.110Z,22.70
2023-01-12T04:43:08.379Z,25.42
2023-01-12T04:45:39.904Z,17.60
2023-01-12T04:48:10.921Z,24.08
2023-01-12T04:50:44.459Z,21.30
2023-01-12T04:53:15.159Z,29.85
2023-01-12T04:55:45.029Z,24.63
2023-01-12T04:58:14.019Z,20.67
2023-01-12T05:00:43.049Z,23.55
2023-01-12T05:03:13.821Z,21.02
2023-01-12T05:05:43.343Z,21.67
2023-01-12T05:08:31.067Z,23.77
2023-01-12T05:11:02.301Z,22.70
2023-01-12T05:16:10.352Z,38.70
2023-01-12T05:18:39.661Z,23.48
2023-01-12T05:21:08.960Z,30.58
2023-01-12T05:23:37.942Z,30.08
2023-01-12T05:26:08.595Z,23.40
2023-01-12T05:28:37.663Z,20.58
2023-01-12T05:31:08.617Z,21.52
2023-01-12T05:33:38.278Z,17.25
2023-01-12T05:36:08.548Z,23.65
2023-01-12T05:38:37.809Z,23.00
2023-01-12T05:41:10.279Z,23.63
2023-01-12T05:43:50.384Z,19.17
2023-01-12T05:46:21.511Z,18.63
2023-01-12T05:48:51.768Z,22.20
2023-01-12T05:51:21.076Z,22.80
2023-01-12T05:53:50.264Z,19.08
2023-01-12T05:56:23.161Z,23.38
2023-01-12T05:58:52.750Z,18.20
2023-01-12T06:01:22.809Z,15.70
2023-01-12T06:03:52.601Z,24.48
2023-01-12T06:06:23.853Z,25.75
2023-01-12T06:08:53.119Z,14.82
2023-01-12T06:11:41.341Z,19.75
2023-01-12T06:14:11.140Z,18.40
2023-01-12T06:16:41.788Z,22.08
2023-01-12T06:19:13.064Z,16.63
2023-01-12T06:21:42.553Z,26.10
2023-01-12T06:24:11.828Z,21.35
2023-01-12T06:26:45.208Z,21.42
2023-01-12T06:29:14.515Z,18.10
2023-01-12T06:31:44.036Z,22.70
2023-01-12T06:34:13.265Z,19.17
2023-01-12T06:36:42.261Z,20.67
2023-01-12T06:39:13.012Z,17.63
2023-01-12T06:42:00.175Z,17.48
2023-01-12T06:44:29.155Z,14.13
2023-01-12T06:46:58.146Z,16.20
2023-01-12T06:49:27.127Z,22.77
2023-01-12T06:51:56.137Z,17.05
2023-01-12T06:54:25.140Z,17.70
2023-01-12T06:56:55.857Z,13.30
2023-01-12T06:59:24.854Z,15.25
2023-01-12T07:01:53.957Z,20.45
2023-01-12T07:04:23.079Z,15.15
2023-01-12T07:06:55.616Z,16.95
2023-01-12T07:09:24.599Z,9.65
2023-01-12T07:11:55.041Z,18.38
2023-01-12T07:14:24.071Z,15.10
2023-01-12T07:16:53.179Z,15.32
2023-01-12T07:19:22.200Z,16.00
2023-01-12T07:21:51.577Z,13.43
2023-01-12T07:24:20.619Z,11.05
2023-01-12T07:26:50.554Z,11.95
2023-01-12T07:29:20.927Z,10.88
2023-01-12T07:31:50.264Z,9.43
2023-01-12T07:34:19.550Z,15.85
2023-01-12T07:36:50.183Z,13.70
2023-01-12T07:39:19.740Z,15.57
2023-01-12T07:42:06.029Z,13.45
2023-01-12T07:44:36.457Z,8.15
2023-01-12T07:47:05.551Z,10.10
2023-01-12T07:49:34.585Z,6.78
2023-01-12T07:52:03.654Z,6.15
2023-01-12T07:54:33.738Z,8.02
2023-01-12T07:57:02.793Z,8.35
2023-01-12T07:59:31.757Z,8.55
2023-01-12T08:02:02.188Z,8.07
2023-01-12T08:04:31.179Z,6.30
2023-01-12T08:07:00.258Z,6.72
2023-01-12T08:09:29.196Z,6.25
2023-01-12T08:11:58.150Z,13.88
2023-01-12T08:14:33.306Z,10.55
2023-01-12T08:17:04.742Z,9.60
2023-01-12T08:19:38.835Z,9.65
2023-01-12T08:22:16.537Z,11.77
2023-01-12T08:24:51.668Z,15.00
2023-01-12T08:27:24.622Z,15.30
2023-01-12T08:29:55.952Z,23.73
2023-01-12T08:35:01.717Z,32.28
2023-01-12T08:37:31.965Z,15.10
2023-01-12T08:40:01.007Z,25.55
2023-01-12T08:42:31.962Z,23.38
2023-01-12T08:45:01.088Z,27.67
2023-01-12T08:47:31.883Z,24.30
2023-01-12T08:50:01.759Z,29.55
2023-01-12T08:52:32.627Z,31.23
2023-01-12T08:55:01.611Z,30.95
2023-01-12T08:57:30.671Z,27.00
2023-01-12T08:59:59.664Z,29.77
2023-01-12T09:02:29.720Z,36.63
2023-01-12T09:05:00.173Z,28.65
2023-01-12T09:07:29.202Z,30.73
2023-01-12T09:09:58.176Z,30.80
2023-01-12T09:12:28.472Z,25.60
2023-01-12T09:14:57.488Z,28.95
2023-01-12T09:17:26.880Z,32.75
2023-01-12T09:19:55.855Z,30.65
2023-01-12T09:22:26.417Z,28.92
2023-01-12T09:24:55.408Z,25.58
2023-01-12T09:27:24.388Z,31.25
2023-01-12T09:29:53.303Z,34.50
2023-01-12T09:32:26.078Z,34.05
2023-01-12T09:34:59.701Z,44.97
2023-01-12T09:37:30.308Z,43.53
2023-01-12T09:40:11.742Z,44.25
2023-01-12T09:45:44.579Z,37.38
2023-01-12T09:48:15.038Z,41.58
2023-01-12T09:50:50.020Z,40.75
2023-01-12T09:53:22.999Z,44.53
2023-01-12T09:56:01.777Z,51.15
2023-01-12T09:58:43.046Z,38.35
2023-01-12T10:01:28.379Z,52.97
2023-01-12T10:04:01.113Z,39.67
2023-01-12T10:06:30.853Z,46.67
2023-01-12T10:09:03.915Z,48.47
2023-01-12T10:11:42.726Z,37.65
2023-01-12T10:14:44.928Z,40.42
2023-01-12T10:17:35.855Z,33.88
2023-01-12T10:20:18.442Z,47.15
2023-01-12T10:22:50.154Z,54.95
2023-01-12T10:25:36.056Z,47.75
2023-01-12T10:28:15.355Z,53.17
2023-01-12T10:30:45.123Z,50.40
2023-01-12T10:33:18.105Z,47.67
2023-01-12T10:35:54.442Z,48.35
2023-01-12T10:38:30.194Z,39.35
2023-01-12T10:41:18.161Z,37.10
2023-01-12T10:44:05.769Z,39.30
2023-01-12T10:46:36.191Z,43.65
2023-01-12T10:49:18.907Z,49.10
2023-01-12T10:51:54.566Z,48.95
2023-01-12T10:54:26.515Z,47.30
2023-01-12T10:57:01.141Z,51.63
2023-01-12T10:59:32.597Z,53.88
2023-01-12T11:02:16.509Z,40.33
2023-01-12T11:04:47.374Z,43.55
2023-01-12T11:07:18.959Z,46.88
2023-01-12T11:09:48.206Z,35.97
2023-01-12T11:12:25.331Z,49.80
2023-01-12T11:15:03.089Z,40.80
2023-01-12T11:17:56.351Z,48.42
2023-01-12T11:20:29.796Z,50.83
2023-01-12T11:23:02.815Z,45.28
2023-01-12T11:25:35.490Z,45.22
2023-01-12T11:28:11.697Z,41.70
2023-01-12T11:30:47.875Z,39.05
2023-01-12T11:33:21.672Z,40.05
2023-01-12T11:35:57.664Z,46.63
2023-01-12T11:38:33.170Z,40.38
2023-01-12T11:41:04.757Z,45.35
2023-01-12T11:43:50.165Z,34.67
2023-01-12T11:46:25.042Z,27.80
2023-01-12T11:49:03.669Z,34.72
2023-01-12T11:51:32.715Z,30.23
2023-01-12T11:54:02.093Z,24.52
2023-01-12T11:56:51.401Z,26.67
2023-01-12T11:59:27.765Z,20.83
2023-01-12T12:02:02.608Z,22.00
2023-01-12T12:04:51.348Z,30.63
2023-01-12T12:07:32.773Z,24.25
2023-01-12T12:12:45.915Z,27.20
2023-01-12T12:15:28.104Z,27.85
2023-01-12T12:18:09.947Z,27.92
2023-01-12T12:20:48.803Z,26.55
2023-01-12T12:23:29.968Z,32.42
2023-01-12T12:26:07.927Z,25.67
2023-01-12T12:28:53.713Z,23.63
2023-01-12T12:31:41.309Z,26.90
2023-01-12T12:34:29.989Z,23.20
2023-01-12T12:37:04.891Z,26.23
2023-01-12T12:39:47.770Z,32.45
2023-01-12T12:42:52.423Z,29.85
2023-01-12T12:45:33.192Z,32.47
2023-01-12T12:48:12.386Z,29.55
2023-01-12T12:50:48.238Z,34.25
2023-01-12T12:53:25.446Z,29.30
2023-01-12T12:55:57.285Z,30.33
2023-01-12T12:58:30.327Z,23.63
2023-01-12T13:01:44.542Z,22.70
2023-01-12T13:04:15.370Z,24.30
2023-01-12T13:06:49.456Z,20.25
2023-01-12T13:09:43.465Z,11.23
2023-01-12T13:12:39.487Z,18.83
2023-01-12T13:15:36.651Z,12.70
2023-01-12T13:18:07.224Z,15.00
2023-01-12T13:20:56.542Z,13.45
2023-01-12T13:23:50.698Z,16.55
2023-01-12T13:26:47.543Z,16.70
2023-01-12T13:29:42.150Z,24.40
2023-01-12T13:32:37.208Z,21.08
2023-01-12T13:35:24.039Z,24.35
2023-01-12T13:38:02.359Z,31.00
2023-01-12T13:40:33.123Z,31.90
2023-01-12T13:43:16.825Z,35.90
2023-01-12T13:45:53.716Z,28.38
2023-01-12T13:48:22.837Z,35.78
2023-01-12T13:50:54.895Z,27.23
2023-01-12T13:53:28.690Z,32.97
2023-01-12T13:56:00.469Z,39.22
2023-01-12T13:58:37.951Z,29.15
2023-01-12T14:01:08.867Z,29.83
2023-01-12T14:04:03.073Z,32.67
2023-01-12T14:06:41.546Z,33.47
2023-01-12T14:09:20.932Z,29.08
2023-01-12T14:12:22.292Z,31.15
2023-01-12T14:15:41.554Z,29.65
2023-01-12T14:18:13.964Z,30.48
2023-01-12T14:20:48.173Z,27.63
2023-01-12T14:23:20.834Z,37.58
2023-01-12T14:26:06.203Z,34.53
2023-01-12T14:28:36.051Z,27.30
2023-01-12T14:31:07.297Z,24.65
2023-01-12T14:36:08.211Z,27.98
2023-01-12T14:38:43.729Z,20.70
2023-01-12T14:41:37.158Z,28.30
2023-01-12T14:44:25.083Z,33.25
2023-01-12T14:46:56.306Z,33.90
2023-01-12T14:51:58.533Z,23.38
2023-01-12T14:54:29.545Z,30.23
2023-01-12T14:57:02.507Z,31.65
2023-01-12T14:59:33.370Z,27.77
2023-01-12T15:02:34.123Z,32.33
2023-01-12T15:05:06.355Z,30.17
2023-01-12T15:07:37.437Z,28.33
2023-01-12T15:10:27.912Z,31.80
2023-01-12T15:13:00.506Z,30.58
2023-01-12T15:15:52.230Z,22.17
2023-01-12T15:18:38.666Z,23.08
2023-01-12T15:21:27.757Z,22.33
2023-01-12T15:24:15.194Z,23.58
2023-01-12T15:26:47.942Z,25.58
2023-01-12T15:29:23.638Z,22.88
2023-01-12T15:31:52.796Z,27.10
2023-01-12T15:34:21.861Z,24.05
2023-01-12T15:36:50.938Z,23.77
2023-01-12T15:39:19.999Z,26.02
2023-01-12T15:42:06.479Z,24.48
2023-01-12T15:44:38.497Z,19.15
2023-01-12T15:47:08.059Z,25.13
2023-01-12T15:49:36.996Z,18.00
2023-01-12T15:52:07.850Z,25.15
2023-01-12T15:54:36.911Z,26.40
2023-01-12T15:57:05.954Z,17.52
2023-01-12T15:59:36.366Z,28.42
2023-01-12T16:02:05.986Z,21.87
2023-01-12T16:04:43.935Z,17.38
2023-01-12T16:07:13.244Z,28.17
2023-01-12T16:09:42.290Z,18.60
2023-01-12T16:12:12.046Z,21.13
2023-01-12T16:14:42.574Z,22.23
2023-01-12T16:17:11.584Z,23.10
2023-01-12T16:19:42.196Z,27.13
2023-01-12T16:22:17.929Z,19.88
2023-01-12T16:24:46.915Z,17.05
2023-01-12T16:27:16.008Z,30.88
2023-01-12T16:29:46.783Z,20.45
2023-01-12T16:32:16.080Z,25.70
2023-01-12T16:34:45.883Z,24.60
2023-01-12T16:37:16.413Z,24.45
2023-01-12T16:39:45.459Z,27.83
2023-01-12T16:42:14.432Z,26.10
2023-01-12T16:44:43.437Z,34.13
2023-01-12T16:47:17.979Z,25.10
2023-01-12T16:49:50.348Z,31.23
2023-01-12T16:52:22.019Z,23.98
2023-01-12T16:54:51.060Z,25.02
2023-01-12T16:57:20.509Z,26.88
2023-01-12T16:59:51.442Z,26.45
2023-01-12T17:02:22.310Z,25.15
2023-01-12T17:04:52.768Z,28.17
2023-01-12T17:07:21.964Z,38.83
2023-01-12T17:09:51.353Z,34.53
2023-01-12T17:12:20.570Z,31.48
2023-01-12T17:14:49.636Z,38.33
2023-01-12T17:17:18.885Z,29.50
2023-01-12T17:19:49.503Z,19.05
2023-01-12T17:22:18.719Z,22.63
2023-01-12T17:24:48.028Z,24.45
2023-01-12T17:27:17.117Z,23.75
2023-01-12T17:29:48.750Z,24.05
2023-01-12T17:32:25.222Z,32.70
2023-01-12T17:34:57.041Z,73.85
2023-01-12T17:37:27.128Z,26.27
2023-01-12T17:39:56.185Z,23.85
2023-01-12T17:42:39.070Z,25.65
2023-01-12T17:45:09.019Z,25.88
2023-01-12T17:47:38.001Z,22.25
2023-01-12T17:50:09.602Z,15.45
2023-01-12T17:52:38.723Z,25.15
2023-01-12T17:55:08.298Z,17.00
2023-01-12T17:57:37.313Z,22.02
2023-01-12T18:00:09.061Z,26.60
2023-01-12T18:02:44.250Z,20.33
2023-01-12T18:05:14.745Z,23.98
2023-01-12T18:07:43.738Z,21.77
2023-01-12T18:10:13.429Z,23.27
2023-01-12T18:12:42.563Z,19.05
2023-01-12T18:15:12.600Z,24.27
2023-01-12T18:17:41.585Z,27.05
2023-01-12T18:20:11.661Z,16.13
2023-01-12T18:22:42.132Z,20.77
2023-01-12T18:25:11.375Z,17.80
2023-01-12T18:27:44.930Z,22.77
2023-01-12T18:30:14.348Z,19.83
2023-01-12T18:32:43.352Z,23.45
2023-01-12T18:35:13.960Z,16.73
2023-01-12T18:37:44.573Z,21.13
2023-01-12T18:40:14.304Z,15.48
2023-01-12T18:42:51.441Z,13.20
2023-01-12T18:45:21.071Z,19.77
2023-01-12T18:48:08.013Z,17.17
2023-01-12T18:50:54.853Z,17.95
2023-01-12T18:53:26.551Z,19.60
2023-01-12T18:55:57.371Z,19.65
2023-01-12T18:58:28.574Z,20.42
2023-01-12T19:00:58.892Z,20.48
2023-01-12T19:03:27.919Z,14.63
2023-01-12T19:06:01.008Z,22.95
2023-01-12T19:08:49.306Z,17.70
2023-01-12T19:11:18.369Z,31.73
2023-01-12T19:14:04.753Z,27.60
2023-01-12T19:16:51.219Z,30.90
2023-01-12T19:19:23.913Z,27.77
2023-01-12T19:22:10.240Z,19.85
2023-01-12T19:24:58.721Z,23.60
2023-01-12T19:27:44.965Z,20.13
2023-01-12T19:30:14.435Z,31.35
2023-01-12T19:32:43.503Z,28.80
2023-01-12T19:35:12.468Z,25.15
2023-01-12T19:37:42.650Z,23.13
2023-01-12T19:40:19.675Z,22.80
2023-01-12T19:43:06.099Z,22.10
2023-01-12T19:45:38.820Z,22.95
2023-01-12T19:48:08.570Z,22.48
2023-01-12T19:50:38.360Z,25.58
2023-01-12T19:53:09.787Z,28.45
2023-01-12T19:55:42.292Z,24.02
2023-01-12T19:58:11.392Z,26.90
2023-01-12T20:00:44.923Z,33.50
2023-01-12T20:03:14.905Z,26.73
2023-01-12T20:05:44.856Z,29.33
2023-01-12T20:08:14.317Z,27.20
2023-01-12T20:10:45.301Z,25.50
2023-01-12T20:13:15.124Z,17.80
2023-01-12T20:15:44.834Z,73.95
2023-01-12T20:18:13.947Z,64.40
2023-01-12T20:20:42.929Z,27.50
2023-01-12T20:23:12.559Z,30.50
2023-01-12T20:25:42.178Z,24.65
2023-01-12T20:28:14.454Z,27.33
2023-01-12T20:30:44.373Z,24.33
2023-01-12T20:33:13.382Z,29.10
2023-01-12T20:35:46.310Z,23.88
2023-01-12T20:38:16.804Z,26.85
2023-01-12T20:40:47.043Z,19.20
2023-01-12T20:43:17.574Z,30.00
2023-01-12T20:45:52.466Z,37.10
2023-01-12T20:48:21.477Z,31.58
2023-01-12T20:50:50.461Z,35.53
2023-01-12T20:53:19.895Z,46.63
2023-01-12T20:55:51.633Z,48.65
2023-01-12T20:58:22.209Z,34.65
2023-01-12T21:00:51.297Z,38.25
2023-01-12T21:03:20.679Z,33.97
2023-01-12T21:05:50.099Z,36.00
2023-01-12T21:08:19.598Z,32.03
2023-01-12T21:10:54.393Z,37.17
2023-01-12T21:13:24.852Z,34.85
2023-01-12T21:15:58.965Z,31.40
2023-01-12T21:18:28.138Z,29.77
2023-01-12T21:20:57.281Z,29.42
2023-01-12T21:23:27.049Z,27.95
2023-01-12T21:25:56.135Z,28.45
2023-01-12T21:28:29.231Z,31.50
2023-01-12T21:31:02.205Z,27.65
2023-01-12T21:33:31.667Z,33.78
2023-01-12T21:36:01.008Z,28.02
2023-01-12T21:38:30.360Z,27.15
2023-01-12T21:41:03.353Z,23.92
2023-01-12T21:43:34.544Z,25.35
2023-01-12T21:46:08.731Z,21.58
2023-01-12T21:48:38.423Z,29.83
2023-01-12T21:51:09.263Z,25.48
2023-01-12T21:53:38.570Z,27.52
2023-01-12T21:56:08.388Z,25.65
2023-01-12T21:58:39.374Z,29.25
2023-01-12T22:01:10.164Z,29.30
2023-01-12T22:03:39.927Z,34.38
2023-01-12T22:06:11.223Z,25.80
2023-01-12T22:11:10.884Z,20.60
2023-01-12T22:13:42.120Z,33.45
2023-01-12T22:18:44.364Z,33.53
2023-01-12T22:21:13.966Z,29.15
2023-01-12T22:23:43.142Z,33.35
2023-01-12T22:26:14.665Z,31.30
2023-01-12T22:28:47.077Z,31.35
2023-01-12T22:31:17.991Z,33.40
2023-01-12T22:33:48.145Z,26.08
2023-01-12T22:36:17.254Z,31.13
2023-01-12T22:38:46.269Z,27.40
2023-01-12T22:41:16.620Z,34.75
2023-01-12T22:43:49.096Z,25.70
2023-01-12T22:46:20.973Z,39.10
2023-01-12T22:48:51.283Z,30.98
2023-01-12T22:51:21.710Z,36.55
2023-01-12T22:53:50.859Z,25.70
2023-01-12T22:56:19.960Z,27.90
2023-01-12T22:58:52.580Z,25.08
2023-01-12T23:01:23.117Z,24.55
2023-01-12T23:03:54.421Z,28.38
2023-01-12T23:06:26.360Z,26.77
2023-01-12T23:08:55.607Z,29.80
2023-01-12T23:11:26.283Z,29.88
2023-01-12T23:13:57.017Z,32.75
2023-01-12T23:16:26.911Z,25.55
2023-01-12T23:19:01.657Z,31.20
2023-01-12T23:21:30.658Z,19.05
2023-01-12T23:24:01.406Z,24.20
2023-01-12T23:26:33.185Z,22.95
2023-01-12T23:29:03.920Z,23.13
2023-01-12T23:31:34.588Z,19.98
2023-01-12T23:34:03.804Z,21.13
2023-01-12T23:36:33.286Z,26.15
2023-01-12T23:39:04.789Z,20.48
2023-01-12T23:41:35.297Z,17.25
2023-01-12T23:44:07.518Z,27.55
2023-01-12T23:46:39.081Z,20.08
2023-01-12T23:49:08.222Z,26.15
2023-01-12T23:51:37.181Z,19.10
2023-01-12T23:54:07.642Z,18.40
2023-01-12T23:56:36.593Z,20.70
2023-01-12T23:59:07.004Z,27.30
